EZY32HX LGSA-EGCC
Flight info
| Callsign | EZY32HX |
|---|---|
| Flight time | N/A |
| Altitude | 36000 |
| Route | SOKRI UB1 DDM UM619 YNN UL611 TUMBO DCT OVVER DCT RODON DCT VAKSU DCT SPL DCT NAKIT DCT PEVAL DCT MOBDO/N0446F380 DCT SOTOV P66 KPT L608 TEDGO DCT LIRSU DCT BUB L608 DENUT L610 LAM UN57 WELIN T420 ELVOS |
| Aircraft | A320/M-SDE3FGHIRWY/LB1 |
Departure
| Time | 2026-05-05 16:22 |
|---|---|
| Airport | Chania International Airport (LGSA) |
Arrival
| Time | N/A |
|---|---|
| Airport | Manchester Airport (EGCC) |
| Time | Latitude | Longitude | Altitude | Speed | Heading |
|---|---|---|---|---|---|
| 2026-05-05 15:44 | 35.53888 | 24.14017 | 493 ft | 0 kts | 22° |
| 2026-05-05 16:07 | 35.53883 | 24.14015 | 498 ft | 3 kts | 22° |
| 2026-05-05 16:07 | 35.53864 | 24.14005 | 495 ft | 3 kts | 25° |
| 2026-05-05 16:07 | 35.53846 | 24.13994 | 487 ft | 3 kts | 30° |
| 2026-05-05 16:07 | 35.53829 | 24.13981 | 490 ft | 3 kts | 41° |
| 2026-05-05 16:08 | 35.53816 | 24.13963 | 487 ft | 3 kts | 71° |
| 2026-05-05 16:08 | 35.53815 | 24.13959 | 487 ft | 3 kts | 82° |
| 2026-05-05 16:08 | 35.53814 | 24.13947 | 490 ft | 0 kts | 112° |
| 2026-05-05 16:11 | 35.53810 | 24.13961 | 494 ft | 5 kts | 112° |
| 2026-05-05 16:12 | 35.53796 | 24.13995 | 495 ft | 4 kts | 128° |
| 2026-05-05 16:12 | 35.53674 | 24.14007 | 490 ft | 7 kts | 113° |
| 2026-05-05 16:13 | 35.53549 | 24.14381 | 489 ft | 17 kts | 111° |
| 2026-05-05 16:13 | 35.53506 | 24.14513 | 490 ft | 16 kts | 112° |
| 2026-05-05 16:13 | 35.53467 | 24.14632 | 495 ft | 14 kts | 111° |
| 2026-05-05 16:14 | 35.53401 | 24.14835 | 489 ft | 11 kts | 111° |
| 2026-05-05 16:14 | 35.53349 | 24.14993 | 494 ft | 12 kts | 112° |
| 2026-05-05 16:15 | 35.53290 | 24.15174 | 490 ft | 12 kts | 111° |
| 2026-05-05 16:15 | 35.53215 | 24.15395 | 486 ft | 15 kts | 114° |
| 2026-05-05 16:16 | 35.53138 | 24.15642 | 494 ft | 14 kts | 111° |
| 2026-05-05 16:16 | 35.53075 | 24.15838 | 492 ft | 11 kts | 111° |
| 2026-05-05 16:17 | 35.53028 | 24.15982 | 492 ft | 8 kts | 112° |
| 2026-05-05 16:17 | 35.53009 | 24.16038 | 494 ft | 6 kts | 112° |
| 2026-05-05 16:18 | 35.52985 | 24.16113 | 493 ft | 3 kts | 112° |
| 2026-05-05 16:18 | 35.52976 | 24.16139 | 498 ft | 7 kts | 112° |
| 2026-05-05 16:18 | 35.52880 | 24.16436 | 493 ft | 18 kts | 111° |
| 2026-05-05 16:19 | 35.52836 | 24.16570 | 495 ft | 16 kts | 111° |
| 2026-05-05 16:19 | 35.52796 | 24.16691 | 493 ft | 14 kts | 112° |
| 2026-05-05 16:19 | 35.52718 | 24.16879 | 494 ft | 10 kts | 169° |
| 2026-05-05 16:20 | 35.52616 | 24.16833 | 498 ft | 6 kts | 201° |
| 2026-05-05 16:20 | 35.52589 | 24.16762 | 490 ft | 5 kts | 299° |
| 2026-05-05 16:21 | 35.52594 | 24.16747 | 494 ft | 7 kts | 290° |
| 2026-05-05 16:22 | 35.53347 | 24.14419 | 583 ft | 166 kts | 291° |
| 2026-05-05 16:22 | 35.54132 | 24.11940 | 1754 ft | 172 kts | 291° |
| 2026-05-05 16:23 | 35.54895 | 24.09029 | 2921 ft | 184 kts | 288° |
| 2026-05-05 16:23 | 35.55300 | 24.07513 | 3495 ft | 190 kts | 292° |
| 2026-05-05 16:23 | 35.57439 | 24.05190 | 4104 ft | 235 kts | 329° |
| 2026-05-05 16:24 | 35.58912 | 24.04095 | 4529 ft | 257 kts | 329° |
| 2026-05-05 16:24 | 35.60464 | 24.02916 | 5253 ft | 266 kts | 329° |
| 2026-05-05 16:24 | 35.63638 | 24.00478 | 6991 ft | 271 kts | 330° |
| 2026-05-05 16:25 | 35.65239 | 23.99239 | 7852 ft | 272 kts | 329° |
| 2026-05-05 16:25 | 35.68458 | 23.96737 | 9589 ft | 275 kts | 329° |
| 2026-05-05 16:25 | 35.70087 | 23.95468 | 10337 ft | 281 kts | 329° |
| 2026-05-05 16:26 | 35.73664 | 23.92689 | 10775 ft | 327 kts | 329° |
| 2026-05-05 16:26 | 35.77611 | 23.89615 | 11923 ft | 341 kts | 328° |
| 2026-05-05 16:27 | 35.79627 | 23.88043 | 12626 ft | 344 kts | 328° |
| 2026-05-05 16:27 | 35.81635 | 23.86477 | 13320 ft | 347 kts | 327° |
| 2026-05-05 16:27 | 35.83684 | 23.84880 | 14009 ft | 350 kts | 327° |
| 2026-05-05 16:27 | 35.85773 | 23.83253 | 14642 ft | 352 kts | 327° |
| 2026-05-05 16:28 | 35.87854 | 23.81630 | 15291 ft | 354 kts | 327° |
| 2026-05-05 16:28 | 35.89907 | 23.80024 | 15905 ft | 355 kts | 327° |
| 2026-05-05 16:28 | 35.92001 | 23.78385 | 16528 ft | 357 kts | 327° |
| 2026-05-05 16:28 | 35.94104 | 23.76740 | 17136 ft | 359 kts | 327° |
| 2026-05-05 16:29 | 35.96249 | 23.75064 | 17749 ft | 361 kts | 327° |
| 2026-05-05 16:29 | 35.98348 | 23.73422 | 18322 ft | 363 kts | 327° |
| 2026-05-05 16:29 | 36.00460 | 23.71690 | 18822 ft | 365 kts | 322° |
| 2026-05-05 16:29 | 36.02468 | 23.69757 | 19328 ft | 367 kts | 322° |
| 2026-05-05 16:30 | 36.04484 | 23.67811 | 19851 ft | 368 kts | 322° |
| 2026-05-05 16:30 | 36.06506 | 23.65859 | 20362 ft | 369 kts | 322° |
| 2026-05-05 16:30 | 36.08534 | 23.63899 | 20861 ft | 371 kts | 322° |
| 2026-05-05 16:30 | 36.10569 | 23.61931 | 21349 ft | 372 kts | 322° |
| 2026-05-05 16:31 | 36.12618 | 23.59952 | 21836 ft | 374 kts | 322° |
| 2026-05-05 16:31 | 36.14670 | 23.57971 | 22316 ft | 375 kts | 322° |
| 2026-05-05 16:31 | 36.16734 | 23.55974 | 22784 ft | 377 kts | 322° |
| 2026-05-05 16:31 | 36.18802 | 23.53965 | 23246 ft | 379 kts | 322° |
| 2026-05-05 16:32 | 36.20878 | 23.51948 | 23691 ft | 380 kts | 322° |
| 2026-05-05 16:32 | 36.22965 | 23.49925 | 24060 ft | 382 kts | 323° |
| 2026-05-05 16:32 | 36.25207 | 23.48143 | 24416 ft | 384 kts | 332° |
| 2026-05-05 16:32 | 36.27663 | 23.46927 | 24775 ft | 387 kts | 342° |
| 2026-05-05 16:33 | 36.30307 | 23.46253 | 25129 ft | 391 kts | 348° |
| 2026-05-05 16:33 | 36.32998 | 23.45704 | 25483 ft | 392 kts | 348° |
| 2026-05-05 16:33 | 36.35691 | 23.45154 | 25846 ft | 393 kts | 347° |
| 2026-05-05 16:33 | 36.38394 | 23.44596 | 26188 ft | 395 kts | 347° |
| 2026-05-05 16:34 | 36.41107 | 23.44034 | 26537 ft | 396 kts | 347° |
| 2026-05-05 16:34 | 36.43836 | 23.43471 | 26879 ft | 398 kts | 347° |
| 2026-05-05 16:34 | 36.46568 | 23.42909 | 27213 ft | 399 kts | 347° |
| 2026-05-05 16:34 | 36.49314 | 23.42342 | 27504 ft | 401 kts | 347° |
| 2026-05-05 16:35 | 36.52072 | 23.41772 | 27833 ft | 402 kts | 347° |
| 2026-05-05 16:35 | 36.54834 | 23.41200 | 28173 ft | 402 kts | 347° |
| 2026-05-05 16:35 | 36.57595 | 23.40628 | 28486 ft | 403 kts | 347° |
| 2026-05-05 16:35 | 36.60372 | 23.40053 | 28790 ft | 405 kts | 347° |
| 2026-05-05 16:36 | 36.63153 | 23.39475 | 29086 ft | 406 kts | 347° |
| 2026-05-05 16:36 | 36.65944 | 23.38894 | 29374 ft | 407 kts | 347° |
| 2026-05-05 16:36 | 36.68733 | 23.38313 | 29732 ft | 407 kts | 347° |
| 2026-05-05 16:36 | 36.71517 | 23.37733 | 30158 ft | 405 kts | 347° |
| 2026-05-05 16:37 | 36.74289 | 23.37156 | 30504 ft | 403 kts | 347° |
| 2026-05-05 16:37 | 36.77054 | 23.36581 | 30868 ft | 402 kts | 347° |
| 2026-05-05 16:37 | 36.79810 | 23.36006 | 31202 ft | 401 kts | 347° |
| 2026-05-05 16:37 | 36.82523 | 23.35436 | 31506 ft | 400 kts | 346° |
| 2026-05-05 16:38 | 36.85157 | 23.34432 | 31792 ft | 395 kts | 332° |
| 2026-05-05 16:38 | 36.87493 | 23.32647 | 32074 ft | 394 kts | 325° |
| 2026-05-05 16:38 | 36.89765 | 23.30724 | 32365 ft | 393 kts | 325° |
| 2026-05-05 16:38 | 36.92024 | 23.28799 | 32672 ft | 393 kts | 325° |
| 2026-05-05 16:39 | 36.94276 | 23.26871 | 32976 ft | 393 kts | 325° |
| 2026-05-05 16:39 | 36.96530 | 23.24941 | 33278 ft | 392 kts | 324° |
| 2026-05-05 16:39 | 36.98781 | 23.23015 | 33576 ft | 392 kts | 324° |
| 2026-05-05 16:39 | 37.01036 | 23.21089 | 33904 ft | 391 kts | 325° |